createdAt,value
2022-08-25T00:01:55.662Z,21.70
2022-08-25T00:04:25.039Z,21.60
2022-08-25T00:13:44.089Z,21.50
2022-08-25T00:16:13.929Z,21.40
2022-08-25T00:18:45.131Z,21.40
2022-08-25T00:21:14.569Z,20.50
2022-08-25T00:31:14.626Z,21.30
2022-08-25T00:36:12.295Z,21.30
2022-08-25T00:38:40.567Z,20.10
2022-08-25T00:41:11.261Z,21.30
2022-08-25T00:43:47.550Z,21.30
2022-08-25T00:46:18.955Z,21.20
2022-08-25T00:48:51.977Z,21.40
2022-08-25T00:51:28.854Z,21.20
2022-08-25T00:53:57.520Z,20.90
2022-08-25T00:56:26.380Z,21.00
2022-08-25T01:01:24.559Z,21.00
2022-08-25T01:08:49.787Z,18.80
2022-08-25T01:11:17.959Z,19.40
2022-08-25T01:13:54.516Z,20.90
2022-08-25T01:16:24.555Z,18.70
2022-08-25T01:18:56.419Z,20.40
2022-08-25T01:21:27.556Z,20.90
2022-08-25T01:23:58.287Z,20.90
2022-08-25T01:26:30.600Z,20.20
2022-08-25T01:29:17.841Z,20.00
2022-08-25T01:34:15.649Z,20.80
2022-08-25T01:36:46.305Z,20.80
2022-08-25T01:39:15.502Z,20.80
2022-08-25T01:41:55.954Z,20.80
2022-08-25T01:49:21.704Z,20.30
2022-08-25T01:51:57.067Z,20.70
2022-08-25T01:59:24.390Z,20.40
2022-08-25T02:07:00.001Z,20.60
2022-08-25T02:11:56.877Z,18.50
2022-08-25T02:16:55.725Z,20.50
2022-08-25T02:19:25.974Z,18.60
2022-08-25T02:24:24.307Z,25.50
2022-08-25T02:26:52.560Z,18.80
2022-08-25T02:29:20.705Z,18.30
2022-08-25T02:34:17.617Z,20.40
2022-08-25T02:41:43.874Z,18.90
2022-08-25T02:49:09.525Z,20.40
2022-08-25T02:51:37.795Z,19.90
2022-08-25T02:54:07.139Z,20.40
2022-08-25T02:56:35.687Z,19.70
2022-08-25T02:59:05.636Z,20.30
2022-08-25T03:01:34.156Z,20.30
2022-08-25T03:08:59.721Z,19.70
2022-08-25T03:13:56.903Z,20.20
2022-08-25T03:16:28.252Z,17.90
2022-08-25T03:18:57.623Z,20.10
2022-08-25T03:21:26.244Z,25.10
2022-08-25T03:26:40.808Z,20.10
2022-08-25T03:29:10.592Z,20.10
2022-08-25T03:31:40.255Z,19.10
2022-08-25T03:44:06.823Z,20.00
2022-08-25T03:46:39.016Z,19.30
2022-08-25T03:49:10.910Z,19.90
2022-08-25T03:51:42.203Z,19.90
2022-08-25T03:54:11.582Z,19.90
2022-08-25T04:04:09.789Z,19.80
2022-08-25T04:06:40.136Z,19.80
2022-08-25T04:11:37.680Z,19.10
2022-08-25T04:16:36.337Z,19.70
2022-08-25T04:19:10.346Z,19.70
2022-08-25T04:21:38.983Z,17.30
2022-08-25T04:24:08.738Z,19.70
2022-08-25T04:26:39.704Z,19.70
2022-08-25T04:29:10.319Z,17.90
2022-08-25T04:31:40.936Z,19.70
2022-08-25T04:34:13.467Z,19.40
2022-08-25T04:41:54.324Z,18.60
2022-08-25T04:49:20.677Z,19.60
2022-08-25T04:51:49.162Z,19.60
2022-08-25T04:54:21.700Z,19.60
2022-08-25T04:56:54.242Z,19.50
2022-08-25T05:04:29.359Z,19.50
2022-08-25T05:21:54.779Z,19.50
2022-08-25T05:29:23.578Z,18.80
2022-08-25T05:34:21.676Z,19.40
2022-08-25T05:36:51.461Z,18.80
2022-08-25T05:39:21.028Z,19.50
2022-08-25T05:41:49.354Z,17.80
2022-08-25T05:46:49.967Z,17.10
2022-08-25T05:49:20.455Z,21.50
2022-08-25T06:05:17.576Z,19.70
2022-08-25T06:10:16.077Z,19.70
2022-08-25T06:12:46.596Z,19.80
2022-08-25T06:15:16.510Z,19.80
2022-08-25T06:17:44.813Z,17.70
2022-08-25T06:20:15.833Z,17.40
2022-08-25T06:25:14.966Z,20.00
2022-08-25T06:30:24.523Z,19.60
2022-08-25T06:37:54.806Z,20.10
2022-08-25T06:45:22.578Z,20.20
2022-08-25T06:50:21.641Z,19.50
2022-08-25T07:02:47.131Z,20.40
2022-08-25T07:17:51.771Z,20.70
2022-08-25T07:20:20.065Z,19.70
2022-08-25T07:22:49.161Z,18.50
2022-08-25T07:27:47.123Z,20.80
2022-08-25T07:35:26.220Z,21.80
2022-08-25T07:37:59.858Z,25.90
2022-08-25T07:40:31.863Z,21.10
2022-08-25T07:43:04.010Z,19.40
2022-08-25T07:45:46.873Z,21.10
2022-08-25T07:48:23.808Z,21.20
2022-08-25T07:50:53.550Z,21.20
2022-08-25T07:58:22.050Z,19.60
2022-08-25T08:06:13.929Z,20.50
2022-08-25T08:08:45.380Z,21.60
2022-08-25T08:11:17.249Z,21.60
2022-08-25T08:16:17.150Z,21.70
2022-08-25T08:18:46.372Z,19.60
2022-08-25T08:21:19.270Z,21.90
2022-08-25T08:23:48.491Z,19.60
2022-08-25T08:28:51.903Z,22.00
2022-08-25T08:33:50.200Z,19.70
2022-08-25T08:36:19.837Z,22.20
2022-08-25T08:42:11.715Z,22.60
2022-08-25T08:44:52.106Z,22.80
2022-08-25T08:47:29.692Z,20.60
2022-08-25T08:50:05.942Z,23.20
2022-08-25T08:52:46.052Z,23.40
2022-08-25T08:55:25.248Z,23.60
2022-08-25T08:57:55.651Z,23.80
2022-08-25T09:00:24.369Z,22.70
2022-08-25T09:02:57.653Z,23.10
2022-08-25T09:05:30.512Z,24.40
2022-08-25T09:08:07.670Z,24.60
2022-08-25T09:10:43.058Z,24.80
2022-08-25T09:13:26.267Z,24.90
2022-08-25T09:16:22.402Z,24.70
2022-08-25T09:19:21.495Z,25.30
2022-08-25T09:21:58.305Z,25.50
2022-08-25T09:24:41.388Z,25.60
2022-08-25T09:27:19.790Z,25.80
2022-08-25T09:29:59.907Z,25.90
2022-08-25T09:32:31.595Z,26.00
2022-08-25T09:35:02.810Z,26.20
2022-08-25T09:40:01.859Z,26.50
2022-08-25T09:42:49.715Z,26.70
2022-08-25T09:45:31.252Z,26.90
2022-08-25T09:50:35.068Z,27.20
2022-08-25T09:53:17.616Z,26.40
2022-08-25T09:55:59.794Z,27.50
2022-08-25T09:58:31.636Z,25.40
2022-08-25T10:01:04.851Z,26.30
2022-08-25T10:06:12.913Z,25.60
2022-08-25T10:08:56.071Z,26.50
2022-08-25T10:11:38.246Z,28.30
2022-08-25T10:14:19.216Z,28.40
2022-08-25T10:16:48.883Z,27.00
2022-08-25T10:19:26.317Z,28.50
2022-08-25T10:22:08.314Z,32.40
2022-08-25T10:24:43.925Z,27.70
2022-08-25T10:27:23.905Z,26.50
2022-08-25T10:30:04.299Z,27.50
2022-08-25T10:32:41.555Z,28.70
2022-08-25T10:35:16.699Z,28.80
2022-08-25T10:37:54.650Z,28.90
2022-08-25T10:40:31.729Z,27.20
2022-08-25T10:43:09.136Z,33.10
2022-08-25T10:45:53.748Z,27.70
2022-08-25T10:48:45.737Z,28.90
2022-08-25T10:51:36.188Z,28.00
2022-08-25T10:54:17.446Z,29.40
2022-08-25T10:56:53.123Z,33.40
2022-08-25T10:59:48.558Z,29.40
2022-08-25T11:02:58.852Z,29.50
2022-08-25T11:05:31.589Z,27.60
2022-08-25T11:08:08.518Z,29.10
2022-08-25T11:10:44.727Z,29.80
2022-08-25T11:13:23.617Z,29.80
2022-08-25T11:16:18.937Z,29.80
2022-08-25T11:18:54.265Z,29.90
2022-08-25T11:21:27.299Z,28.40
2022-08-25T11:24:05.697Z,29.80
2022-08-25T11:26:37.304Z,29.90
2022-08-25T11:29:12.718Z,29.40
2022-08-25T11:31:52.221Z,29.40
2022-08-25T11:34:23.432Z,30.40
2022-08-25T11:36:54.697Z,30.10
2022-08-25T11:39:38.627Z,30.10
2022-08-25T11:42:21.665Z,30.10
2022-08-25T11:44:59.549Z,30.00
2022-08-25T11:47:49.532Z,29.10
2022-08-25T11:50:31.768Z,28.00
2022-08-25T11:53:04.943Z,28.60
2022-08-25T11:55:51.349Z,30.00
2022-08-25T11:58:33.812Z,28.20
2022-08-25T12:01:03.757Z,29.70
2022-08-25T12:03:55.028Z,29.70
2022-08-25T12:06:27.870Z,28.10
2022-08-25T12:09:21.720Z,28.10
2022-08-25T12:11:55.164Z,28.50
2022-08-25T12:14:46.662Z,33.00
2022-08-25T12:17:24.186Z,28.80
2022-08-25T12:19:59.635Z,30.30
2022-08-25T12:22:54.162Z,30.30
2022-08-25T12:25:55.075Z,29.00
2022-08-25T12:28:51.577Z,30.60
2022-08-25T12:31:31.654Z,30.50
2022-08-25T12:34:14.229Z,28.90
2022-08-25T12:36:57.730Z,28.60
2022-08-25T12:39:34.865Z,28.90
2022-08-25T12:42:06.685Z,30.20
2022-08-25T12:44:40.278Z,30.10
2022-08-25T12:47:14.110Z,30.00
2022-08-25T12:52:16.994Z,29.90
2022-08-25T12:54:55.213Z,28.60
2022-08-25T12:57:42.283Z,28.80
2022-08-25T13:00:23.615Z,30.00
2022-08-25T13:03:35.185Z,30.00
2022-08-25T13:06:23.200Z,30.00
2022-08-25T13:09:17.619Z,30.00
2022-08-25T13:11:49.685Z,29.10
2022-08-25T13:14:28.464Z,29.90
2022-08-25T13:16:58.534Z,29.80
2022-08-25T13:19:35.010Z,29.80
2022-08-25T13:22:16.460Z,29.40
2022-08-25T13:24:50.437Z,29.90
2022-08-25T13:27:28.292Z,28.30
2022-08-25T13:30:03.565Z,28.00
2022-08-25T13:32:35.413Z,28.60
2022-08-25T13:35:15.481Z,28.30
2022-08-25T13:40:17.648Z,28.40
2022-08-25T13:42:54.340Z,29.00
2022-08-25T13:45:26.274Z,28.10
2022-08-25T13:50:34.398Z,28.70
2022-08-25T13:53:11.351Z,29.70
2022-08-25T13:55:51.541Z,29.70
2022-08-25T13:58:32.331Z,29.70
2022-08-25T14:01:22.818Z,28.80
2022-08-25T14:04:25.154Z,28.30
2022-08-25T14:07:09.754Z,27.90
2022-08-25T14:09:41.687Z,29.80
2022-08-25T14:12:09.844Z,28.20
2022-08-25T14:14:37.953Z,28.80
2022-08-25T14:17:22.206Z,29.80
2022-08-25T14:20:02.773Z,29.90
2022-08-25T14:22:30.914Z,28.70
2022-08-25T14:27:27.983Z,30.20
2022-08-25T14:29:56.215Z,29.70
2022-08-25T14:32:25.705Z,28.50
2022-08-25T14:37:25.830Z,29.90
2022-08-25T14:40:00.967Z,29.80
2022-08-25T14:47:28.410Z,28.10
2022-08-25T14:49:56.562Z,28.60
2022-08-25T14:52:30.346Z,29.60
2022-08-25T14:59:56.031Z,27.70
2022-08-25T15:02:29.474Z,28.40
2022-08-25T15:05:00.869Z,29.00
2022-08-25T15:07:51.585Z,29.40
2022-08-25T15:12:53.824Z,27.80
2022-08-25T15:15:22.212Z,28.90
2022-08-25T15:22:49.136Z,29.50
2022-08-25T15:25:18.149Z,28.60
2022-08-25T15:30:15.924Z,29.40
2022-08-25T15:32:44.080Z,28.50
2022-08-25T15:37:46.939Z,28.00
2022-08-25T15:40:16.670Z,29.10
2022-08-25T15:42:46.102Z,28.20
2022-08-25T15:45:15.091Z,27.70
2022-08-25T15:47:43.180Z,28.40
2022-08-25T15:50:14.758Z,29.30
2022-08-25T15:52:47.738Z,27.80
2022-08-25T15:55:19.966Z,29.20
2022-08-25T16:00:19.277Z,28.90
2022-08-25T16:05:22.479Z,27.30
2022-08-25T16:10:23.815Z,28.70
2022-08-25T16:17:56.963Z,27.50
2022-08-25T16:25:24.815Z,28.20
2022-08-25T16:32:50.423Z,27.00
2022-08-25T16:37:49.196Z,26.80
2022-08-25T16:42:49.794Z,27.90
2022-08-25T16:45:18.311Z,27.10
2022-08-25T16:50:17.207Z,27.80
2022-08-25T16:58:13.476Z,26.10
2022-08-25T17:00:43.857Z,26.40
2022-08-25T17:03:12.941Z,26.20
2022-08-25T17:05:43.882Z,25.90
2022-08-25T17:08:30.709Z,26.50
2022-08-25T17:11:10.749Z,26.60
2022-08-25T17:13:44.853Z,27.60
2022-08-25T17:16:15.076Z,26.00
2022-08-25T17:18:46.533Z,26.00
2022-08-25T17:21:24.079Z,27.50
2022-08-25T17:26:27.798Z,30.90
2022-08-25T17:28:59.586Z,27.50
2022-08-25T17:31:28.836Z,27.50
2022-08-25T17:33:58.485Z,27.50
2022-08-25T17:38:56.859Z,26.30
2022-08-25T17:41:26.137Z,27.20
2022-08-25T17:43:54.377Z,26.70
2022-08-25T17:46:24.390Z,26.30
2022-08-25T17:53:52.658Z,25.50
2022-08-25T17:56:24.096Z,31.10
2022-08-25T17:58:55.110Z,26.50
2022-08-25T18:01:26.372Z,25.40
2022-08-25T18:03:54.923Z,31.00
2022-08-25T18:06:25.034Z,25.90
2022-08-25T18:08:56.351Z,25.80
2022-08-25T18:13:59.094Z,27.00
2022-08-25T18:16:28.666Z,27.20
2022-08-25T18:18:57.136Z,25.50
2022-08-25T18:21:30.232Z,26.00
2022-08-25T18:23:59.151Z,25.30
2022-08-25T18:33:55.470Z,26.20
2022-08-25T18:36:23.601Z,26.10
2022-08-25T18:41:40.410Z,27.00
2022-08-25T18:49:09.710Z,27.00
2022-08-25T18:54:07.796Z,26.90
2022-08-25T18:59:23.357Z,26.90
2022-08-25T19:01:52.894Z,25.90
2022-08-25T19:04:28.406Z,27.20
2022-08-25T19:14:27.791Z,26.10
2022-08-25T19:19:35.177Z,25.50
2022-08-25T19:29:31.235Z,24.70
2022-08-25T19:32:01.534Z,26.50
2022-08-25T19:34:34.934Z,26.50
2022-08-25T19:37:06.158Z,25.60
2022-08-25T19:39:39.344Z,26.40
2022-08-25T19:42:08.600Z,26.30
2022-08-25T19:44:56.829Z,25.60
2022-08-25T19:49:55.523Z,26.30
2022-08-25T19:52:24.944Z,25.70
2022-08-25T19:54:54.952Z,24.80
2022-08-25T19:57:42.192Z,26.20
2022-08-25T20:00:15.686Z,24.50
2022-08-25T20:05:14.199Z,30.10
2022-08-25T20:10:14.696Z,25.90
2022-08-25T20:12:44.644Z,25.80
2022-08-25T20:15:14.698Z,24.70
2022-08-25T20:17:46.045Z,25.80
2022-08-25T20:20:18.287Z,24.00
2022-08-25T20:25:17.791Z,25.80
2022-08-25T20:27:49.545Z,25.80
2022-08-25T20:30:19.689Z,23.90
2022-08-25T20:32:47.881Z,25.50
2022-08-25T20:35:18.792Z,25.70
2022-08-25T20:37:48.611Z,25.70
2022-08-25T20:40:25.840Z,23.80
2022-08-25T20:42:54.864Z,25.80
2022-08-25T20:45:24.005Z,23.60
2022-08-25T20:50:24.037Z,24.80
2022-08-25T20:52:54.161Z,25.00
2022-08-25T20:55:22.834Z,26.10
2022-08-25T21:00:23.510Z,24.40
2022-08-25T21:05:23.718Z,23.60
2022-08-25T21:12:49.425Z,24.20
2022-08-25T21:15:22.124Z,23.40
2022-08-25T21:17:53.185Z,25.40
2022-08-25T21:20:25.077Z,25.30
2022-08-25T21:22:54.357Z,25.30
2022-08-25T21:25:23.117Z,23.30
2022-08-25T21:27:51.111Z,23.50
2022-08-25T21:35:23.857Z,24.20
2022-08-25T21:45:20.834Z,23.70
2022-08-25T21:47:49.314Z,25.10
2022-08-25T21:50:17.460Z,24.30
2022-08-25T21:52:47.217Z,25.10
2022-08-25T22:00:21.366Z,25.00
2022-08-25T22:02:49.997Z,25.00
2022-08-25T22:07:48.345Z,25.00
2022-08-25T22:10:18.108Z,24.80
2022-08-25T22:12:47.117Z,24.90
2022-08-25T22:15:17.819Z,24.90
2022-08-25T22:20:17.683Z,24.70
2022-08-25T22:25:15.902Z,23.90
2022-08-25T22:30:15.487Z,23.90
2022-08-25T22:40:21.401Z,24.40
2022-08-25T22:42:55.355Z,24.40
2022-08-25T22:47:55.899Z,24.30
2022-08-25T22:55:24.108Z,24.20
2022-08-25T22:57:55.811Z,24.20
2022-08-25T23:00:25.139Z,22.30
2022-08-25T23:07:50.877Z,22.60
2022-08-25T23:12:50.154Z,24.10
2022-08-25T23:15:18.264Z,23.20
2022-08-25T23:23:02.188Z,21.80
2022-08-25T23:28:00.931Z,23.90
2022-08-25T23:40:27.651Z,22.30
2022-08-25T23:45:25.795Z,23.70
2022-08-25T23:52:53.075Z,23.80
